Airfield :
LOGIN :

Register | Disclaimer

   EN    FR    IT 

 










Legend :    VFR   Marginal VFR   IFR   Intensive IFR   Very Intensive IFR
Visi :
Ceiling :
>= 8 km
>= 3000ft
5 to 8 km
1000 to 3000 ft
1500m to 5 km
500 to 1000 ft
800 to 1500m
200 to 500 ft
< 800m
< 200 ft
Symbols :   Thunderstorms  Fog  Heavy snow  Heavy precipitations  Wind > 20 kt
SIGMETs :     Misc.  Thunderstorms  Icing  Turbulence  Mountain Waves  Volcanic Ashes






- Airport Elevation : 158 ft
- IATA code : QAR


EHDL - Deelen Airbase

CURRENT METAR :
  • 010725Z AUTO 23007KT 150V300 3800 BR OVC003 15/14 Q1008 YLO

EXPIRED METARs :
  • 010655Z AUTO 22007KT 160V290 3800 BR BKN003 OVC004 15/15 Q1008 YLO
  • 010625Z AUTO 23007KT 170V270 3800 BR BKN003 OVC004 15/15 Q1008 YLO
  • 010555Z AUTO 22005KT 150V270 3400 BR BKN003 OVC004 15/14 Q1008 YLO
  • 010525Z AUTO 22005KT 160V270 3700 BR FEW002 OVC003 14/14 Q1008 YLO
  • 010455Z AUTO 20005KT 140V210 3400 BR SCT002 SCT004 OVC075 14/14 Q1008 AMB

Expired Forecast.



MET'MAP, your aeronautical weather chart ! - Copyright ORBIFLY December 2007 - Disclaimer

ORBIFLY MET'MAP TEAM :

Programming & Development : Alexandra Zaïnal
Concept & original design : Baudouin d'Aumeries
Assistance for programming : Marc-Olivier Méhu
Technical & hardware support : Manuel Goepfert

Contact : metmap@orbifly.com




SOURCES & CREDITS :

   NOAA